Hall Summit, Louisiana
Current Conditions -  °F | °C
As of 10:58 PM on Thursday 27 Nov 2014 (Local Time) from KBAD Reporting Station
Clear Clear  
Wind Chill: 34°   Ceiling: Unl
Heat Index: 38°   Visibility: 10mi
Dew Point: 30°   Wind: 5mph
Humidity: 74%   Direction: 150°SSE
Pressure: 30.43"   Gusts: NA
Location:  32.18°N, 93.3°W
Report Text: KBAD 280458Z AUTO 15004KT 10SM CLR 03/M01 A3043 RMK AO2 SLP308 T00331009
Loading
Personal Weather Stations






























Interactive Weather Map New forecast layout! Learn more

10-Day Weather Forecast

Advertisements
Track Severe Weather on mobile